createdAt,value
2024-05-09T00:01:52.979Z,100455.38
2024-05-09T00:07:55.074Z,100352.31
2024-05-09T00:13:57.389Z,100252.00
2024-05-09T00:19:59.494Z,100435.91
2024-05-09T00:26:01.761Z,100435.59
2024-05-09T00:32:04.267Z,100436.16
2024-05-09T00:38:06.860Z,100280.09
2024-05-09T00:44:09.454Z,100377.44
2024-05-09T00:50:19.213Z,100428.19
2024-05-09T00:56:25.967Z,100417.63
2024-05-09T01:02:32.709Z,100387.34
2024-05-09T01:08:34.962Z,100369.09
2024-05-09T01:14:37.422Z,100399.03
2024-05-09T01:20:42.883Z,100343.25
2024-05-09T01:26:46.791Z,100312.53
2024-05-09T01:32:48.969Z,100351.03
2024-05-09T01:38:51.195Z,100385.41
2024-05-09T01:44:53.099Z,100379.59
2024-05-09T01:50:55.134Z,100386.06
2024-05-09T01:56:57.212Z,100416.03
2024-05-09T02:02:59.407Z,100419.94
2024-05-09T02:09:01.579Z,100431.38
2024-05-09T02:15:03.772Z,100425.19
2024-05-09T02:21:05.992Z,100413.91
2024-05-09T02:27:08.119Z,100346.84
2024-05-09T02:33:12.674Z,100435.72
2024-05-09T02:39:16.143Z,100195.38
2024-05-09T02:45:18.256Z,100410.28
2024-05-09T02:51:20.278Z,100444.06
2024-05-09T02:57:22.259Z,100295.28
2024-05-09T03:03:24.653Z,100351.91
2024-05-09T03:09:26.956Z,100351.44
2024-05-09T03:15:32.405Z,100352.34
2024-05-09T03:21:40.095Z,100449.09
2024-05-09T03:27:42.188Z,100447.91
2024-05-09T03:33:44.333Z,100449.25
2024-05-09T03:39:46.496Z,100384.91
2024-05-09T03:45:49.885Z,100428.41
2024-05-09T03:51:52.002Z,100445.63
2024-05-09T03:57:54.046Z,100447.75
2024-05-09T04:03:56.648Z,100451.00
2024-05-09T04:09:58.688Z,100456.41
2024-05-09T04:16:00.642Z,100432.75
2024-05-09T04:22:02.611Z,100459.22
2024-05-09T04:28:04.836Z,100460.41
2024-05-09T04:34:07.123Z,100466.44
2024-05-09T04:40:17.193Z,100419.81
2024-05-09T04:46:25.715Z,100425.84
2024-05-09T04:52:27.734Z,100400.63
2024-05-09T04:58:29.887Z,100470.19
2024-05-09T05:04:32.108Z,100432.41
2024-05-09T05:10:36.540Z,100477.81
2024-05-09T05:16:39.156Z,100478.41
2024-05-09T05:22:43.328Z,100478.97
2024-05-09T05:28:47.722Z,100458.78
2024-05-09T05:34:49.832Z,100493.25
2024-05-09T05:40:52.030Z,100376.63
2024-05-09T05:46:54.106Z,100494.00
2024-05-09T05:52:56.092Z,100394.25
2024-05-09T05:58:58.038Z,100484.59
2024-05-09T06:05:00.403Z,100435.72
2024-05-09T06:11:03.457Z,100501.06
2024-05-09T06:17:05.741Z,100489.28
2024-05-09T06:23:09.705Z,100467.72
2024-05-09T06:29:14.330Z,100497.16
2024-05-09T06:35:16.553Z,100457.28
2024-05-09T06:41:18.809Z,100489.50
2024-05-09T06:47:20.953Z,100501.06
2024-05-09T06:53:26.375Z,100433.16
2024-05-09T06:59:29.459Z,100509.16
2024-05-09T07:05:31.756Z,100501.53
2024-05-09T07:11:33.978Z,100499.63
2024-05-09T07:17:36.305Z,100388.22
2024-05-09T07:23:38.966Z,100489.72
2024-05-09T07:29:41.058Z,100498.13
2024-05-09T07:35:43.163Z,100457.69
2024-05-09T07:41:45.451Z,100469.91
2024-05-09T07:49:12.881Z,100504.81
2024-05-09T07:54:12.451Z,100503.94
2024-05-09T08:00:20.248Z,100466.28
2024-05-09T08:06:26.896Z,100495.09
2024-05-09T08:12:29.138Z,100417.59
2024-05-09T08:18:31.428Z,100419.78
2024-05-09T08:24:39.567Z,100495.84
2024-05-09T08:30:41.893Z,100415.69
2024-05-09T08:36:44.110Z,100511.88
2024-05-09T08:42:53.370Z,100480.81
2024-05-09T08:48:57.620Z,100362.25
2024-05-09T08:55:03.260Z,100405.56
2024-05-09T09:01:05.784Z,100515.19
2024-05-09T09:07:08.107Z,100434.00
2024-05-09T09:13:13.697Z,100501.94
2024-05-09T09:19:16.792Z,100495.69
2024-05-09T09:25:19.008Z,100455.94
2024-05-09T09:31:21.279Z,100490.44
2024-05-09T09:37:29.626Z,100467.16
2024-05-09T09:43:33.097Z,100462.53
2024-05-09T09:49:36.976Z,100478.28
2024-05-09T09:55:40.447Z,100422.75
2024-05-09T10:01:46.613Z,100467.91
2024-05-09T10:07:48.838Z,100437.72
2024-05-09T10:13:51.869Z,100467.25
2024-05-09T10:20:14.515Z,100460.31
2024-05-09T10:26:35.365Z,100312.50
2024-05-09T10:32:39.366Z,100456.59
2024-05-09T10:38:43.291Z,100453.09
2024-05-09T10:44:45.368Z,100376.00
2024-05-09T10:50:47.797Z,100326.59
2024-05-09T10:56:56.909Z,100436.66
2024-05-09T11:02:59.042Z,100412.19
2024-05-09T11:09:01.250Z,100207.75
2024-05-09T11:15:06.135Z,100363.09
2024-05-09T11:21:14.423Z,100389.78
2024-05-09T11:27:16.476Z,100400.22
2024-05-09T11:33:19.755Z,100418.78
2024-05-09T11:39:25.126Z,100362.72
2024-05-09T11:45:27.362Z,100382.00
2024-05-09T11:51:29.447Z,100344.78
2024-05-09T11:57:32.315Z,100371.28
2024-05-09T12:03:35.430Z,100382.75
2024-05-09T12:09:37.631Z,100386.06
2024-05-09T12:15:39.833Z,100379.50
2024-05-09T12:21:41.903Z,100381.34
2024-05-09T12:27:44.060Z,100375.84
2024-05-09T12:33:49.278Z,100368.75
2024-05-09T12:39:51.473Z,100358.88
2024-05-09T12:45:53.740Z,100330.72
2024-05-09T12:51:55.827Z,100356.63
2024-05-09T12:57:58.512Z,100315.41
2024-05-09T13:04:00.776Z,100340.31
2024-05-09T13:10:03.673Z,100253.94
2024-05-09T13:16:07.013Z,100312.41
2024-05-09T13:22:09.234Z,100306.56
2024-05-09T13:28:11.493Z,100305.47
2024-05-09T13:34:13.652Z,100246.66
2024-05-09T13:40:23.261Z,100309.53
2024-05-09T13:46:29.536Z,100317.47
2024-05-09T13:52:31.628Z,100229.94
2024-05-09T13:58:33.670Z,100316.47
2024-05-09T14:04:35.806Z,100255.50
2024-05-09T14:10:47.577Z,100306.03
2024-05-09T14:16:49.987Z,100304.94
2024-05-09T14:22:52.306Z,100239.06
2024-05-09T14:28:54.483Z,100300.28
2024-05-09T14:34:56.743Z,100298.16
2024-05-09T14:40:59.017Z,100222.50
2024-05-09T14:47:01.385Z,100210.88
2024-05-09T14:53:03.542Z,100283.16
2024-05-09T14:59:08.667Z,100273.28
2024-05-09T15:05:11.596Z,100282.97
2024-05-09T15:11:14.051Z,100159.84
2024-05-09T15:17:16.942Z,100272.75
2024-05-09T15:23:19.091Z,100272.41
2024-05-09T15:29:21.340Z,100263.31
2024-05-09T15:35:23.318Z,100246.88
2024-05-09T15:41:27.708Z,100214.44
2024-05-09T15:47:30.132Z,100260.19
2024-05-09T15:53:32.133Z,100261.72
2024-05-09T15:59:34.581Z,100071.34
2024-05-09T16:05:37.207Z,100194.19
2024-05-09T16:11:39.699Z,100263.91
2024-05-09T16:17:41.844Z,100261.56
2024-05-09T16:23:44.095Z,100252.84
2024-05-09T16:29:46.177Z,100273.84
2024-05-09T16:35:49.028Z,100269.88
2024-05-09T16:41:51.095Z,100235.44
2024-05-09T16:47:54.602Z,100272.19
2024-05-09T16:53:56.801Z,100269.94
2024-05-09T16:59:58.783Z,100268.22
2024-05-09T17:06:04.073Z,100278.19
2024-05-09T17:12:07.329Z,100278.16
2024-05-09T17:18:09.961Z,100252.22
2024-05-09T17:24:12.289Z,100266.50
2024-05-09T17:30:21.593Z,100232.22
2024-05-09T17:36:30.942Z,100289.88
2024-05-09T17:42:41.558Z,100294.31
2024-05-09T17:48:43.637Z,100034.50
2024-05-09T17:54:45.703Z,100266.69
2024-05-09T18:00:47.807Z,100309.31
2024-05-09T18:06:49.936Z,100318.69
2024-05-09T18:13:06.361Z,100318.31
2024-05-09T18:19:09.762Z,100319.66
2024-05-09T18:25:12.209Z,100336.97
2024-05-09T18:31:15.500Z,100338.03
2024-05-09T18:37:17.642Z,100287.16
2024-05-09T18:43:26.232Z,100346.13
2024-05-09T18:49:33.573Z,100364.41
2024-05-09T18:55:36.138Z,100359.81
2024-05-09T19:01:42.422Z,100279.00
2024-05-09T19:07:44.527Z,100295.25
2024-05-09T19:13:47.723Z,100317.59
2024-05-09T19:19:52.513Z,100331.44
2024-05-09T19:25:54.596Z,100380.53
2024-05-09T19:31:56.874Z,100400.25
2024-05-09T19:37:59.029Z,100384.69
2024-05-09T19:44:01.019Z,100375.34
2024-05-09T19:50:06.285Z,100370.13
2024-05-09T19:56:08.783Z,100389.13
2024-05-09T20:02:11.116Z,100393.59
2024-05-09T20:08:13.262Z,100394.03
2024-05-09T20:14:15.302Z,100270.13
2024-05-09T20:20:28.024Z,100373.78
2024-05-09T20:26:38.158Z,100325.19
2024-05-09T20:32:40.334Z,100404.03
2024-05-09T20:38:42.453Z,100391.25
2024-05-09T20:44:44.687Z,100327.56
2024-05-09T20:50:46.816Z,100395.97
2024-05-09T20:56:48.904Z,100412.72
2024-05-09T21:02:50.964Z,100400.56
2024-05-09T21:08:52.989Z,100413.53
2024-05-09T21:14:55.064Z,100392.06
2024-05-09T21:20:56.992Z,100396.13
2024-05-09T21:26:59.075Z,100300.00
2024-05-09T21:33:01.141Z,100416.28
2024-05-09T21:39:03.184Z,100353.47
2024-05-09T21:45:06.380Z,100407.66
2024-05-09T21:51:15.125Z,100411.97
2024-05-09T21:57:17.108Z,100440.19
2024-05-09T22:03:21.760Z,100440.69
2024-05-09T22:09:23.764Z,100403.44
2024-05-09T22:15:25.824Z,100444.63
2024-05-09T22:21:28.340Z,100267.25
2024-05-09T22:27:30.408Z,100307.47
2024-05-09T22:33:32.640Z,100461.22
2024-05-09T22:39:34.740Z,100445.47
2024-05-09T22:45:36.975Z,100446.78
2024-05-09T22:51:39.195Z,100424.94
2024-05-09T22:57:41.399Z,100447.63
2024-05-09T23:03:43.621Z,100413.06
2024-05-09T23:09:46.503Z,100438.66
2024-05-09T23:15:48.573Z,100437.31
2024-05-09T23:21:50.605Z,100110.09
2024-05-09T23:27:52.670Z,100416.72
2024-05-09T23:33:55.392Z,100435.63
2024-05-09T23:39:57.560Z,100217.16
2024-05-09T23:45:59.738Z,100274.84
2024-05-09T23:52:01.766Z,100443.41
2024-05-09T23:58:04.057Z,100415.44
